sensor_id;sensor_type;location;lat;lon;timestamp;P1;durP1;ratioP1;P2;durP2;ratioP2
13609;SDS011;6876;50.788;4.940;2023-06-04T00:02:32;1.30;;;1.00;;
13609;SDS011;6876;50.788;4.940;2023-06-04T00:05:19;2.03;;;1.20;;
13609;SDS011;6876;50.788;4.940;2023-06-04T00:08:10;1.20;;;1.10;;
13609;SDS011;6876;50.788;4.940;2023-06-04T00:10:57;4.67;;;1.20;;
13609;SDS011;6876;50.788;4.940;2023-06-04T00:13:45;4.63;;;1.17;;
13609;SDS011;6876;50.788;4.940;2023-06-04T00:16:34;2.87;;;1.23;;
13609;SDS011;6876;50.788;4.940;2023-06-04T00:19:22;2.57;;;1.27;;
13609;SDS011;6876;50.788;4.940;2023-06-04T00:22:09;2.87;;;1.30;;
13609;SDS011;6876;50.788;4.940;2023-06-04T00:24:56;2.67;;;1.00;;
13609;SDS011;6876;50.788;4.940;2023-06-04T00:27:43;1.73;;;1.10;;
13609;SDS011;6876;50.788;4.940;2023-06-04T00:30:31;6.00;;;1.10;;
13609;SDS011;6876;50.788;4.940;2023-06-04T00:33:19;1.63;;;0.93;;
13609;SDS011;6876;50.788;4.940;2023-06-04T00:36:07;7.40;;;1.30;;
13609;SDS011;6876;50.788;4.940;2023-06-04T00:38:54;1.43;;;1.00;;
13609;SDS011;6876;50.788;4.940;2023-06-04T00:41:42;2.00;;;1.10;;
13609;SDS011;6876;50.788;4.940;2023-06-04T00:44:29;2.70;;;1.27;;
13609;SDS011;6876;50.788;4.940;2023-06-04T00:47:16;4.40;;;0.90;;
13609;SDS011;6876;50.788;4.940;2023-06-04T00:50:08;1.70;;;1.33;;
13609;SDS011;6876;50.788;4.940;2023-06-04T00:52:56;3.53;;;1.27;;
13609;SDS011;6876;50.788;4.940;2023-06-04T00:55:43;1.40;;;0.97;;
13609;SDS011;6876;50.788;4.940;2023-06-04T00:58:30;2.57;;;1.00;;
13609;SDS011;6876;50.788;4.940;2023-06-04T01:01:19;1.30;;;1.10;;
13609;SDS011;6876;50.788;4.940;2023-06-04T01:04:14;3.03;;;1.23;;
13609;SDS011;6876;50.788;4.940;2023-06-04T01:07:09;3.83;;;1.33;;
13609;SDS011;6876;50.788;4.940;2023-06-04T01:09:57;2.30;;;1.40;;
13609;SDS011;6876;50.788;4.940;2023-06-04T01:12:45;2.93;;;1.30;;
13609;SDS011;6876;50.788;4.940;2023-06-04T01:15:32;5.97;;;1.10;;
13609;SDS011;6876;50.788;4.940;2023-06-04T01:18:21;2.00;;;1.40;;
13609;SDS011;6876;50.788;4.940;2023-06-04T01:21:14;9.87;;;1.40;;
13609;SDS011;6876;50.788;4.940;2023-06-04T01:24:06;3.63;;;1.50;;
13609;SDS011;6876;50.788;4.940;2023-06-04T01:26:55;4.07;;;1.43;;
13609;SDS011;6876;50.788;4.940;2023-06-04T01:29:43;2.10;;;1.37;;
13609;SDS011;6876;50.788;4.940;2023-06-04T01:32:30;3.37;;;1.30;;
13609;SDS011;6876;50.788;4.940;2023-06-04T01:35:20;2.20;;;1.20;;
13609;SDS011;6876;50.788;4.940;2023-06-04T01:38:08;1.97;;;1.10;;
13609;SDS011;6876;50.788;4.940;2023-06-04T01:40:56;2.97;;;1.67;;
13609;SDS011;6876;50.788;4.940;2023-06-04T01:43:46;2.20;;;1.23;;
13609;SDS011;6876;50.788;4.940;2023-06-04T01:46:33;2.07;;;1.40;;
13609;SDS011;6876;50.788;4.940;2023-06-04T01:49:21;4.70;;;1.40;;
13609;SDS011;6876;50.788;4.940;2023-06-04T01:52:08;2.20;;;1.47;;
13609;SDS011;6876;50.788;4.940;2023-06-04T01:54:56;4.07;;;1.40;;
13609;SDS011;6876;50.788;4.940;2023-06-04T01:57:45;4.33;;;1.60;;
13609;SDS011;6876;50.788;4.940;2023-06-04T02:00:33;1.90;;;1.40;;
13609;SDS011;6876;50.788;4.940;2023-06-04T02:03:20;2.17;;;1.50;;
13609;SDS011;6876;50.788;4.940;2023-06-04T02:06:08;3.47;;;1.50;;
13609;SDS011;6876;50.788;4.940;2023-06-04T02:08:55;1.83;;;1.60;;
13609;SDS011;6876;50.788;4.940;2023-06-04T02:11:43;5.60;;;1.37;;
13609;SDS011;6876;50.788;4.940;2023-06-04T02:14:31;2.37;;;1.30;;
13609;SDS011;6876;50.788;4.940;2023-06-04T02:17:19;3.97;;;1.40;;
13609;SDS011;6876;50.788;4.940;2023-06-04T02:20:06;3.50;;;1.50;;
13609;SDS011;6876;50.788;4.940;2023-06-04T02:22:55;2.97;;;1.50;;
13609;SDS011;6876;50.788;4.940;2023-06-04T02:25:43;2.23;;;1.70;;
13609;SDS011;6876;50.788;4.940;2023-06-04T02:28:30;2.60;;;1.40;;
13609;SDS011;6876;50.788;4.940;2023-06-04T02:31:19;2.50;;;1.30;;
13609;SDS011;6876;50.788;4.940;2023-06-04T02:34:06;3.87;;;1.90;;
13609;SDS011;6876;50.788;4.940;2023-06-04T02:36:54;3.50;;;1.60;;
13609;SDS011;6876;50.788;4.940;2023-06-04T02:39:41;2.20;;;1.70;;
13609;SDS011;6876;50.788;4.940;2023-06-04T02:42:28;4.10;;;1.70;;
13609;SDS011;6876;50.788;4.940;2023-06-04T02:45:16;3.00;;;1.63;;
13609;SDS011;6876;50.788;4.940;2023-06-04T02:48:04;2.50;;;1.70;;
13609;SDS011;6876;50.788;4.940;2023-06-04T02:50:51;6.40;;;1.70;;
13609;SDS011;6876;50.788;4.940;2023-06-04T02:53:39;2.50;;;1.90;;
13609;SDS011;6876;50.788;4.940;2023-06-04T02:56:26;3.57;;;1.87;;
13609;SDS011;6876;50.788;4.940;2023-06-04T02:59:13;3.13;;;2.13;;
13609;SDS011;6876;50.788;4.940;2023-06-04T03:02:00;6.57;;;2.00;;
13609;SDS011;6876;50.788;4.940;2023-06-04T03:04:49;3.67;;;1.90;;
13609;SDS011;6876;50.788;4.940;2023-06-04T03:07:38;2.20;;;1.60;;
13609;SDS011;6876;50.788;4.940;2023-06-04T03:10:26;2.13;;;1.40;;
13609;SDS011;6876;50.788;4.940;2023-06-04T03:13:14;4.80;;;1.90;;
13609;SDS011;6876;50.788;4.940;2023-06-04T03:16:01;4.47;;;1.97;;
13609;SDS011;6876;50.788;4.940;2023-06-04T03:18:49;2.60;;;1.70;;
13609;SDS011;6876;50.788;4.940;2023-06-04T03:21:37;4.60;;;1.90;;
13609;SDS011;6876;50.788;4.940;2023-06-04T03:24:25;2.37;;;1.63;;
13609;SDS011;6876;50.788;4.940;2023-06-04T03:27:12;4.47;;;1.90;;
13609;SDS011;6876;50.788;4.940;2023-06-04T03:29:59;3.80;;;1.73;;
13609;SDS011;6876;50.788;4.940;2023-06-04T03:32:46;4.17;;;1.90;;
13609;SDS011;6876;50.788;4.940;2023-06-04T03:35:34;5.03;;;2.10;;
13609;SDS011;6876;50.788;4.940;2023-06-04T03:38:22;12.10;;;1.90;;
13609;SDS011;6876;50.788;4.940;2023-06-04T03:41:09;2.97;;;1.90;;
13609;SDS011;6876;50.788;4.940;2023-06-04T03:43:57;3.50;;;2.03;;
13609;SDS011;6876;50.788;4.940;2023-06-04T03:46:44;5.10;;;2.33;;
13609;SDS011;6876;50.788;4.940;2023-06-04T03:49:32;4.50;;;2.33;;
13609;SDS011;6876;50.788;4.940;2023-06-04T03:52:19;3.73;;;2.20;;
13609;SDS011;6876;50.788;4.940;2023-06-04T03:55:08;4.23;;;2.10;;
13609;SDS011;6876;50.788;4.940;2023-06-04T03:57:56;3.20;;;2.00;;
13609;SDS011;6876;50.788;4.940;2023-06-04T04:00:43;2.30;;;1.80;;
13609;SDS011;6876;50.788;4.940;2023-06-04T04:03:31;2.63;;;2.00;;
13609;SDS011;6876;50.788;4.940;2023-06-04T04:06:19;2.13;;;1.93;;
13609;SDS011;6876;50.788;4.940;2023-06-04T04:09:06;5.47;;;2.10;;
13609;SDS011;6876;50.788;4.940;2023-06-04T04:11:54;4.00;;;2.00;;
13609;SDS011;6876;50.788;4.940;2023-06-04T04:14:42;2.43;;;2.00;;
13609;SDS011;6876;50.788;4.940;2023-06-04T04:17:29;3.93;;;2.00;;
13609;SDS011;6876;50.788;4.940;2023-06-04T04:20:16;4.13;;;2.00;;
13609;SDS011;6876;50.788;4.940;2023-06-04T04:23:04;4.47;;;2.53;;
13609;SDS011;6876;50.788;4.940;2023-06-04T04:25:52;3.87;;;2.33;;
13609;SDS011;6876;50.788;4.940;2023-06-04T04:28:40;4.37;;;2.13;;
13609;SDS011;6876;50.788;4.940;2023-06-04T04:31:28;3.60;;;2.10;;
13609;SDS011;6876;50.788;4.940;2023-06-04T04:34:16;4.07;;;2.27;;
13609;SDS011;6876;50.788;4.940;2023-06-04T04:37:06;7.47;;;2.10;;
13609;SDS011;6876;50.788;4.940;2023-06-04T04:39:53;2.50;;;2.13;;
13609;SDS011;6876;50.788;4.940;2023-06-04T04:42:41;3.90;;;2.00;;
13609;SDS011;6876;50.788;4.940;2023-06-04T04:45:30;5.53;;;2.20;;
13609;SDS011;6876;50.788;4.940;2023-06-04T04:48:17;4.95;;;2.00;;
13609;SDS011;6876;50.788;4.940;2023-06-04T04:51:04;3.47;;;2.10;;
13609;SDS011;6876;50.788;4.940;2023-06-04T04:53:51;5.63;;;2.25;;
13609;SDS011;6876;50.788;4.940;2023-06-04T04:56:40;3.03;;;2.22;;
13609;SDS011;6876;50.788;4.940;2023-06-04T04:59:27;6.45;;;2.05;;
13609;SDS011;6876;50.788;4.940;2023-06-04T05:02:15;4.78;;;2.35;;
13609;SDS011;6876;50.788;4.940;2023-06-04T05:05:03;4.75;;;2.30;;
13609;SDS011;6876;50.788;4.940;2023-06-04T05:07:50;4.28;;;2.45;;
13609;SDS011;6876;50.788;4.940;2023-06-04T05:10:38;3.42;;;2.42;;
13609;SDS011;6876;50.788;4.940;2023-06-04T05:13:25;4.05;;;2.40;;
13609;SDS011;6876;50.788;4.940;2023-06-04T05:16:12;4.50;;;2.30;;
13609;SDS011;6876;50.788;4.940;2023-06-04T05:19:01;3.92;;;2.70;;
13609;SDS011;6876;50.788;4.940;2023-06-04T05:21:48;4.97;;;2.20;;
13609;SDS011;6876;50.788;4.940;2023-06-04T05:24:36;3.13;;;2.25;;
13609;SDS011;6876;50.788;4.940;2023-06-04T05:27:23;4.15;;;2.25;;
13609;SDS011;6876;50.788;4.940;2023-06-04T05:30:11;4.30;;;2.50;;
13609;SDS011;6876;50.788;4.940;2023-06-04T05:32:59;2.92;;;2.30;;
13609;SDS011;6876;50.788;4.940;2023-06-04T05:35:47;5.93;;;2.78;;
13609;SDS011;6876;50.788;4.940;2023-06-04T05:38:34;3.50;;;2.47;;
13609;SDS011;6876;50.788;4.940;2023-06-04T05:41:23;7.93;;;2.63;;
13609;SDS011;6876;50.788;4.940;2023-06-04T05:44:11;5.13;;;2.47;;
13609;SDS011;6876;50.788;4.940;2023-06-04T05:47:00;4.72;;;2.25;;
13609;SDS011;6876;50.788;4.940;2023-06-04T05:49:47;6.65;;;2.58;;
13609;SDS011;6876;50.788;4.940;2023-06-04T05:52:37;4.88;;;2.60;;
13609;SDS011;6876;50.788;4.940;2023-06-04T05:55:24;2.35;;;2.15;;
13609;SDS011;6876;50.788;4.940;2023-06-04T05:58:11;6.05;;;2.70;;
13609;SDS011;6876;50.788;4.940;2023-06-04T06:00:58;3.17;;;2.53;;
13609;SDS011;6876;50.788;4.940;2023-06-04T06:03:46;4.22;;;2.60;;
13609;SDS011;6876;50.788;4.940;2023-06-04T06:06:34;2.88;;;2.50;;
13609;SDS011;6876;50.788;4.940;2023-06-04T06:09:23;4.38;;;2.55;;
13609;SDS011;6876;50.788;4.940;2023-06-04T06:12:10;3.08;;;2.80;;
13609;SDS011;6876;50.788;4.940;2023-06-04T06:14:58;4.22;;;2.45;;
13609;SDS011;6876;50.788;4.940;2023-06-04T06:17:45;6.45;;;2.92;;
13609;SDS011;6876;50.788;4.940;2023-06-04T06:20:32;4.40;;;2.55;;
13609;SDS011;6876;50.788;4.940;2023-06-04T06:23:19;2.92;;;2.28;;
13609;SDS011;6876;50.788;4.940;2023-06-04T06:26:09;6.65;;;2.70;;
13609;SDS011;6876;50.788;4.940;2023-06-04T06:28:57;5.13;;;2.58;;
13609;SDS011;6876;50.788;4.940;2023-06-04T06:31:44;6.57;;;2.50;;
13609;SDS011;6876;50.788;4.940;2023-06-04T06:34:31;2.63;;;2.30;;
13609;SDS011;6876;50.788;4.940;2023-06-04T06:37:19;2.88;;;2.40;;
13609;SDS011;6876;50.788;4.940;2023-06-04T06:40:06;3.03;;;2.50;;
13609;SDS011;6876;50.788;4.940;2023-06-04T06:42:56;3.22;;;2.47;;
13609;SDS011;6876;50.788;4.940;2023-06-04T06:45:43;7.78;;;2.67;;
13609;SDS011;6876;50.788;4.940;2023-06-04T06:48:30;3.10;;;2.80;;
13609;SDS011;6876;50.788;4.940;2023-06-04T06:51:17;6.30;;;2.95;;
13609;SDS011;6876;50.788;4.940;2023-06-04T06:54:05;5.35;;;2.65;;
13609;SDS011;6876;50.788;4.940;2023-06-04T06:56:52;5.57;;;2.70;;
13609;SDS011;6876;50.788;4.940;2023-06-04T06:59:40;5.53;;;2.60;;
13609;SDS011;6876;50.788;4.940;2023-06-04T07:02:28;3.92;;;2.65;;
13609;SDS011;6876;50.788;4.940;2023-06-04T07:05:15;3.83;;;2.80;;
13609;SDS011;6876;50.788;4.940;2023-06-04T07:08:04;6.03;;;2.65;;
13609;SDS011;6876;50.788;4.940;2023-06-04T07:10:51;4.72;;;2.50;;
13609;SDS011;6876;50.788;4.940;2023-06-04T07:13:38;4.45;;;2.58;;
13609;SDS011;6876;50.788;4.940;2023-06-04T07:16:27;6.35;;;2.85;;
13609;SDS011;6876;50.788;4.940;2023-06-04T07:19:14;8.75;;;2.72;;
13609;SDS011;6876;50.788;4.940;2023-06-04T07:22:01;4.43;;;2.72;;
13609;SDS011;6876;50.788;4.940;2023-06-04T07:24:49;6.53;;;2.60;;
13609;SDS011;6876;50.788;4.940;2023-06-04T07:27:36;4.63;;;2.70;;
13609;SDS011;6876;50.788;4.940;2023-06-04T07:30:24;4.85;;;2.70;;
13609;SDS011;6876;50.788;4.940;2023-06-04T07:33:12;6.57;;;2.70;;
13609;SDS011;6876;50.788;4.940;2023-06-04T07:35:59;6.45;;;2.70;;
13609;SDS011;6876;50.788;4.940;2023-06-04T07:38:47;4.13;;;2.05;;
13609;SDS011;6876;50.788;4.940;2023-06-04T07:41:34;5.68;;;2.65;;
13609;SDS011;6876;50.788;4.940;2023-06-04T07:44:21;39.35;;;4.82;;
13609;SDS011;6876;50.788;4.940;2023-06-04T07:47:08;6.20;;;2.38;;
13609;SDS011;6876;50.788;4.940;2023-06-04T07:49:57;5.82;;;2.70;;
13609;SDS011;6876;50.788;4.940;2023-06-04T07:52:44;5.28;;;2.80;;
13609;SDS011;6876;50.788;4.940;2023-06-04T07:55:31;3.80;;;2.50;;
13609;SDS011;6876;50.788;4.940;2023-06-04T07:58:19;7.53;;;2.60;;
13609;SDS011;6876;50.788;4.940;2023-06-04T08:01:06;4.38;;;2.58;;
13609;SDS011;6876;50.788;4.940;2023-06-04T08:03:53;5.07;;;2.70;;
13609;SDS011;6876;50.788;4.940;2023-06-04T08:06:42;3.78;;;2.40;;
13609;SDS011;6876;50.788;4.940;2023-06-04T08:09:30;5.53;;;2.42;;
13609;SDS011;6876;50.788;4.940;2023-06-04T08:12:17;4.25;;;2.30;;
13609;SDS011;6876;50.788;4.940;2023-06-04T08:15:05;2.63;;;2.30;;
13609;SDS011;6876;50.788;4.940;2023-06-04T08:17:53;4.90;;;2.50;;
13609;SDS011;6876;50.788;4.940;2023-06-04T08:20:41;3.03;;;2.42;;
13609;SDS011;6876;50.788;4.940;2023-06-04T08:23:30;4.53;;;2.20;;
13609;SDS011;6876;50.788;4.940;2023-06-04T08:26:17;5.28;;;2.50;;
13609;SDS011;6876;50.788;4.940;2023-06-04T08:29:04;4.50;;;2.63;;
13609;SDS011;6876;50.788;4.940;2023-06-04T08:31:52;3.83;;;2.30;;
13609;SDS011;6876;50.788;4.940;2023-06-04T08:34:39;6.75;;;2.28;;
13609;SDS011;6876;50.788;4.940;2023-06-04T08:37:27;4.70;;;2.28;;
13609;SDS011;6876;50.788;4.940;2023-06-04T08:40:15;3.15;;;2.00;;
13609;SDS011;6876;50.788;4.940;2023-06-04T08:43:03;4.35;;;2.10;;
13609;SDS011;6876;50.788;4.940;2023-06-04T08:45:51;3.67;;;1.90;;
13609;SDS011;6876;50.788;4.940;2023-06-04T08:48:47;10.60;;;2.47;;
13609;SDS011;6876;50.788;4.940;2023-06-04T08:51:36;6.22;;;2.55;;
13609;SDS011;6876;50.788;4.940;2023-06-04T08:54:24;7.13;;;2.30;;
13609;SDS011;6876;50.788;4.940;2023-06-04T08:57:13;6.55;;;1.83;;
13609;SDS011;6876;50.788;4.940;2023-06-04T09:00:02;4.53;;;2.00;;
13609;SDS011;6876;50.788;4.940;2023-06-04T09:02:52;4.15;;;2.45;;
13609;SDS011;6876;50.788;4.940;2023-06-04T09:05:40;6.13;;;2.17;;
13609;SDS011;6876;50.788;4.940;2023-06-04T09:08:34;3.47;;;2.25;;
13609;SDS011;6876;50.788;4.940;2023-06-04T09:11:25;8.00;;;2.50;;
13609;SDS011;6876;50.788;4.940;2023-06-04T09:14:18;3.92;;;2.00;;
13609;SDS011;6876;50.788;4.940;2023-06-04T09:17:06;7.63;;;2.40;;
13609;SDS011;6876;50.788;4.940;2023-06-04T09:19:53;2.83;;;1.77;;
13609;SDS011;6876;50.788;4.940;2023-06-04T09:22:40;5.80;;;1.95;;
13609;SDS011;6876;50.788;4.940;2023-06-04T09:25:28;4.57;;;1.85;;
13609;SDS011;6876;50.788;4.940;2023-06-04T09:28:15;5.22;;;2.00;;
13609;SDS011;6876;50.788;4.940;2023-06-04T09:31:03;4.72;;;2.38;;
13609;SDS011;6876;50.788;4.940;2023-06-04T09:33:51;3.10;;;1.80;;
13609;SDS011;6876;50.788;4.940;2023-06-04T09:36:38;3.15;;;1.90;;
13609;SDS011;6876;50.788;4.940;2023-06-04T09:39:25;3.45;;;2.10;;
13609;SDS011;6876;50.788;4.940;2023-06-04T09:42:13;4.90;;;1.92;;
13609;SDS011;6876;50.788;4.940;2023-06-04T09:45:01;3.05;;;1.70;;
13609;SDS011;6876;50.788;4.940;2023-06-04T09:47:49;4.65;;;1.58;;
13609;SDS011;6876;50.788;4.940;2023-06-04T09:50:36;4.47;;;1.80;;
13609;SDS011;6876;50.788;4.940;2023-06-04T09:53:27;4.03;;;1.80;;
13609;SDS011;6876;50.788;4.940;2023-06-04T09:56:14;5.05;;;1.88;;
13609;SDS011;6876;50.788;4.940;2023-06-04T09:59:01;5.75;;;1.85;;
13609;SDS011;6876;50.788;4.940;2023-06-04T10:01:49;6.97;;;2.00;;
13609;SDS011;6876;50.788;4.940;2023-06-04T10:04:41;4.95;;;1.70;;
13609;SDS011;6876;50.788;4.940;2023-06-04T10:07:29;5.82;;;1.80;;
13609;SDS011;6876;50.788;4.940;2023-06-04T10:10:18;7.97;;;2.38;;
13609;SDS011;6876;50.788;4.940;2023-06-04T10:13:14;3.67;;;1.52;;
13609;SDS011;6876;50.788;4.940;2023-06-04T10:16:04;6.53;;;1.95;;
13609;SDS011;6876;50.788;4.940;2023-06-04T10:18:53;2.55;;;1.45;;
13609;SDS011;6876;50.788;4.940;2023-06-04T10:21:43;5.18;;;1.42;;
13609;SDS011;6876;50.788;4.940;2023-06-04T10:24:30;4.53;;;1.60;;
13609;SDS011;6876;50.788;4.940;2023-06-04T10:27:18;4.78;;;1.75;;
13609;SDS011;6876;50.788;4.940;2023-06-04T10:30:06;2.55;;;1.50;;
13609;SDS011;6876;50.788;4.940;2023-06-04T10:32:54;8.70;;;1.60;;
13609;SDS011;6876;50.788;4.940;2023-06-04T10:35:43;2.72;;;1.75;;
13609;SDS011;6876;50.788;4.940;2023-06-04T10:38:32;3.83;;;1.60;;
13609;SDS011;6876;50.788;4.940;2023-06-04T10:41:20;4.72;;;1.85;;
13609;SDS011;6876;50.788;4.940;2023-06-04T10:44:08;5.70;;;1.75;;
13609;SDS011;6876;50.788;4.940;2023-06-04T10:46:56;2.80;;;1.63;;
13609;SDS011;6876;50.788;4.940;2023-06-04T10:49:43;4.13;;;1.98;;
13609;SDS011;6876;50.788;4.940;2023-06-04T10:52:31;3.35;;;1.80;;
13609;SDS011;6876;50.788;4.940;2023-06-04T10:55:19;6.20;;;1.73;;
13609;SDS011;6876;50.788;4.940;2023-06-04T10:58:06;2.33;;;1.65;;
13609;SDS011;6876;50.788;4.940;2023-06-04T11:00:54;6.20;;;2.00;;
13609;SDS011;6876;50.788;4.940;2023-06-04T11:03:41;3.60;;;1.65;;
13609;SDS011;6876;50.788;4.940;2023-06-04T11:06:28;3.60;;;1.88;;
13609;SDS011;6876;50.788;4.940;2023-06-04T11:09:15;2.97;;;1.80;;
13609;SDS011;6876;50.788;4.940;2023-06-04T11:12:06;3.35;;;2.00;;
13609;SDS011;6876;50.788;4.940;2023-06-04T11:14:54;3.30;;;1.98;;
13609;SDS011;6876;50.788;4.940;2023-06-04T11:20:47;6.05;;;1.90;;
13609;SDS011;6876;50.788;4.940;2023-06-04T11:23:35;5.45;;;2.00;;
13609;SDS011;6876;50.788;4.940;2023-06-04T11:26:28;3.28;;;1.73;;
13609;SDS011;6876;50.788;4.940;2023-06-04T11:29:18;3.35;;;1.67;;
13609;SDS011;6876;50.788;4.940;2023-06-04T11:32:05;2.95;;;2.40;;
13609;SDS011;6876;50.788;4.940;2023-06-04T11:35:01;4.90;;;1.80;;
13609;SDS011;6876;50.788;4.940;2023-06-04T11:37:53;4.70;;;1.90;;
13609;SDS011;6876;50.788;4.940;2023-06-04T11:40:41;7.43;;;1.77;;
13609;SDS011;6876;50.788;4.940;2023-06-04T11:43:30;15.00;;;3.13;;
13609;SDS011;6876;50.788;4.940;2023-06-04T11:46:21;3.78;;;1.60;;
13609;SDS011;6876;50.788;4.940;2023-06-04T11:49:11;3.85;;;2.10;;
13609;SDS011;6876;50.788;4.940;2023-06-04T11:52:00;4.72;;;1.80;;
13609;SDS011;6876;50.788;4.940;2023-06-04T11:54:48;5.28;;;1.98;;
13609;SDS011;6876;50.788;4.940;2023-06-04T11:57:36;3.95;;;1.80;;
13609;SDS011;6876;50.788;4.940;2023-06-04T12:00:24;9.40;;;1.80;;
13609;SDS011;6876;50.788;4.940;2023-06-04T12:03:13;2.95;;;2.10;;
13609;SDS011;6876;50.788;4.940;2023-06-04T12:06:08;5.30;;;1.98;;
13609;SDS011;6876;50.788;4.940;2023-06-04T12:08:57;3.92;;;1.70;;
13609;SDS011;6876;50.788;4.940;2023-06-04T12:11:44;4.63;;;1.60;;
13609;SDS011;6876;50.788;4.940;2023-06-04T12:14:31;5.45;;;1.60;;
13609;SDS011;6876;50.788;4.940;2023-06-04T12:17:19;3.28;;;1.50;;
13609;SDS011;6876;50.788;4.940;2023-06-04T12:20:08;5.53;;;1.98;;
13609;SDS011;6876;50.788;4.940;2023-06-04T12:22:56;1.67;;;1.55;;
13609;SDS011;6876;50.788;4.940;2023-06-04T12:25:43;4.18;;;1.77;;
13609;SDS011;6876;50.788;4.940;2023-06-04T12:28:37;4.00;;;2.00;;
13609;SDS011;6876;50.788;4.940;2023-06-04T12:31:24;4.60;;;1.92;;
13609;SDS011;6876;50.788;4.940;2023-06-04T12:34:16;4.05;;;2.15;;
13609;SDS011;6876;50.788;4.940;2023-06-04T12:37:05;3.95;;;1.90;;
13609;SDS011;6876;50.788;4.940;2023-06-04T12:39:53;2.40;;;1.60;;
13609;SDS011;6876;50.788;4.940;2023-06-04T12:42:40;5.43;;;1.85;;
13609;SDS011;6876;50.788;4.940;2023-06-04T12:45:28;5.07;;;1.75;;
13609;SDS011;6876;50.788;4.940;2023-06-04T12:48:15;7.22;;;2.17;;
13609;SDS011;6876;50.788;4.940;2023-06-04T12:51:02;5.22;;;2.10;;
13609;SDS011;6876;50.788;4.940;2023-06-04T12:53:51;4.25;;;2.70;;
13609;SDS011;6876;50.788;4.940;2023-06-04T12:56:39;3.70;;;1.80;;
13609;SDS011;6876;50.788;4.940;2023-06-04T12:59:27;6.72;;;2.08;;
13609;SDS011;6876;50.788;4.940;2023-06-04T13:02:14;4.35;;;1.92;;
13609;SDS011;6876;50.788;4.940;2023-06-04T13:05:01;3.42;;;1.88;;
13609;SDS011;6876;50.788;4.940;2023-06-04T13:07:49;3.85;;;1.50;;
13609;SDS011;6876;50.788;4.940;2023-06-04T13:10:38;3.13;;;1.88;;
13609;SDS011;6876;50.788;4.940;2023-06-04T13:13:25;5.53;;;1.80;;
13609;SDS011;6876;50.788;4.940;2023-06-04T13:16:13;3.65;;;1.70;;
13609;SDS011;6876;50.788;4.940;2023-06-04T13:19:01;5.03;;;2.10;;
13609;SDS011;6876;50.788;4.940;2023-06-04T13:21:48;3.40;;;1.40;;
13609;SDS011;6876;50.788;4.940;2023-06-04T13:24:35;4.75;;;1.60;;
13609;SDS011;6876;50.788;4.940;2023-06-04T13:27:24;3.17;;;1.45;;
13609;SDS011;6876;50.788;4.940;2023-06-04T13:30:11;1.70;;;1.55;;
13609;SDS011;6876;50.788;4.940;2023-06-04T13:32:59;4.10;;;2.00;;
13609;SDS011;6876;50.788;4.940;2023-06-04T13:35:47;2.95;;;1.67;;
13609;SDS011;6876;50.788;4.940;2023-06-04T13:38:35;2.95;;;1.60;;
13609;SDS011;6876;50.788;4.940;2023-06-04T13:41:22;4.68;;;1.83;;
13609;SDS011;6876;50.788;4.940;2023-06-04T13:44:12;2.20;;;1.55;;
13609;SDS011;6876;50.788;4.940;2023-06-04T13:46:59;6.50;;;1.90;;
13609;SDS011;6876;50.788;4.940;2023-06-04T13:49:47;9.45;;;1.88;;
13609;SDS011;6876;50.788;4.940;2023-06-04T13:52:34;3.22;;;1.83;;
13609;SDS011;6876;50.788;4.940;2023-06-04T13:55:21;5.13;;;1.60;;
13609;SDS011;6876;50.788;4.940;2023-06-04T13:58:08;8.25;;;1.95;;
13609;SDS011;6876;50.788;4.940;2023-06-04T14:00:57;2.75;;;1.58;;
13609;SDS011;6876;50.788;4.940;2023-06-04T14:03:44;4.07;;;1.70;;
13609;SDS011;6876;50.788;4.940;2023-06-04T14:06:32;3.88;;;1.70;;
13609;SDS011;6876;50.788;4.940;2023-06-04T14:09:21;4.05;;;1.45;;
13609;SDS011;6876;50.788;4.940;2023-06-04T14:12:08;3.35;;;1.65;;
13609;SDS011;6876;50.788;4.940;2023-06-04T14:14:55;2.03;;;1.80;;
13609;SDS011;6876;50.788;4.940;2023-06-04T14:17:44;4.32;;;1.80;;
13609;SDS011;6876;50.788;4.940;2023-06-04T14:20:32;5.78;;;1.73;;
13609;SDS011;6876;50.788;4.940;2023-06-04T14:23:20;5.82;;;1.73;;
13609;SDS011;6876;50.788;4.940;2023-06-04T14:26:07;7.00;;;1.90;;
13609;SDS011;6876;50.788;4.940;2023-06-04T14:28:54;4.38;;;1.83;;
13609;SDS011;6876;50.788;4.940;2023-06-04T14:31:41;5.03;;;2.08;;
13609;SDS011;6876;50.788;4.940;2023-06-04T14:34:32;5.20;;;2.17;;
13609;SDS011;6876;50.788;4.940;2023-06-04T14:37:19;7.13;;;2.00;;
13609;SDS011;6876;50.788;4.940;2023-06-04T14:40:06;4.25;;;2.05;;
13609;SDS011;6876;50.788;4.940;2023-06-04T14:42:54;2.30;;;1.98;;
13609;SDS011;6876;50.788;4.940;2023-06-04T14:45:42;4.32;;;1.90;;
13609;SDS011;6876;50.788;4.940;2023-06-04T14:48:35;4.60;;;2.05;;
13609;SDS011;6876;50.788;4.940;2023-06-04T14:51:24;7.25;;;2.05;;
13609;SDS011;6876;50.788;4.940;2023-06-04T14:54:11;3.00;;;1.80;;
13609;SDS011;6876;50.788;4.940;2023-06-04T14:56:58;2.13;;;1.65;;
13609;SDS011;6876;50.788;4.940;2023-06-04T14:59:47;3.50;;;1.80;;
13609;SDS011;6876;50.788;4.940;2023-06-04T15:02:35;4.13;;;1.73;;
13609;SDS011;6876;50.788;4.940;2023-06-04T15:05:22;7.07;;;1.60;;
13609;SDS011;6876;50.788;4.940;2023-06-04T15:08:11;4.97;;;1.75;;
13609;SDS011;6876;50.788;4.940;2023-06-04T15:10:58;2.65;;;1.85;;
13609;SDS011;6876;50.788;4.940;2023-06-04T15:13:45;2.30;;;1.88;;
13609;SDS011;6876;50.788;4.940;2023-06-04T15:16:32;5.38;;;2.10;;
13609;SDS011;6876;50.788;4.940;2023-06-04T15:19:20;3.58;;;1.70;;
13609;SDS011;6876;50.788;4.940;2023-06-04T15:22:07;4.38;;;1.70;;
13609;SDS011;6876;50.788;4.940;2023-06-04T15:24:55;2.45;;;1.80;;
13609;SDS011;6876;50.788;4.940;2023-06-04T15:27:42;5.10;;;1.90;;
13609;SDS011;6876;50.788;4.940;2023-06-04T15:30:30;3.08;;;1.77;;
13609;SDS011;6876;50.788;4.940;2023-06-04T15:33:17;3.22;;;1.80;;
13609;SDS011;6876;50.788;4.940;2023-06-04T15:36:04;4.55;;;1.70;;
13609;SDS011;6876;50.788;4.940;2023-06-04T15:38:52;3.17;;;2.05;;
13609;SDS011;6876;50.788;4.940;2023-06-04T15:41:40;4.10;;;1.70;;
13609;SDS011;6876;50.788;4.940;2023-06-04T15:44:28;5.38;;;1.90;;
13609;SDS011;6876;50.788;4.940;2023-06-04T15:47:15;5.50;;;1.50;;
13609;SDS011;6876;50.788;4.940;2023-06-04T15:50:02;3.75;;;1.55;;
13609;SDS011;6876;50.788;4.940;2023-06-04T15:52:50;3.85;;;1.60;;
13609;SDS011;6876;50.788;4.940;2023-06-04T15:55:37;1.95;;;1.50;;
13609;SDS011;6876;50.788;4.940;2023-06-04T15:58:26;4.72;;;1.60;;
13609;SDS011;6876;50.788;4.940;2023-06-04T16:01:13;4.85;;;1.65;;
13609;SDS011;6876;50.788;4.940;2023-06-04T16:04:00;7.32;;;1.90;;
13609;SDS011;6876;50.788;4.940;2023-06-04T16:06:47;4.50;;;1.65;;
13609;SDS011;6876;50.788;4.940;2023-06-04T16:09:35;2.75;;;1.83;;
13609;SDS011;6876;50.788;4.940;2023-06-04T16:12:22;2.95;;;1.85;;
13609;SDS011;6876;50.788;4.940;2023-06-04T16:15:11;3.65;;;1.73;;
13609;SDS011;6876;50.788;4.940;2023-06-04T16:17:58;4.60;;;1.90;;
13609;SDS011;6876;50.788;4.940;2023-06-04T16:20:46;2.85;;;1.95;;
13609;SDS011;6876;50.788;4.940;2023-06-04T16:23:33;4.03;;;2.60;;
13609;SDS011;6876;50.788;4.940;2023-06-04T16:26:20;3.22;;;1.90;;
13609;SDS011;6876;50.788;4.940;2023-06-04T16:29:08;3.05;;;2.03;;
13609;SDS011;6876;50.788;4.940;2023-06-04T16:31:56;3.78;;;2.20;;
13609;SDS011;6876;50.788;4.940;2023-06-04T16:34:43;3.47;;;1.88;;
13609;SDS011;6876;50.788;4.940;2023-06-04T16:37:31;2.33;;;1.88;;
13609;SDS011;6876;50.788;4.940;2023-06-04T16:40:18;5.90;;;2.10;;
13609;SDS011;6876;50.788;4.940;2023-06-04T16:43:05;6.70;;;2.15;;
13609;SDS011;6876;50.788;4.940;2023-06-04T16:45:53;3.45;;;1.83;;
13609;SDS011;6876;50.788;4.940;2023-06-04T16:48:41;5.28;;;2.15;;
13609;SDS011;6876;50.788;4.940;2023-06-04T16:51:29;10.30;;;2.60;;
13609;SDS011;6876;50.788;4.940;2023-06-04T16:54:16;9.75;;;3.25;;
13609;SDS011;6876;50.788;4.940;2023-06-04T16:57:04;3.50;;;2.60;;
13609;SDS011;6876;50.788;4.940;2023-06-04T16:59:51;3.90;;;2.40;;
13609;SDS011;6876;50.788;4.940;2023-06-04T17:02:39;3.38;;;2.05;;
13609;SDS011;6876;50.788;4.940;2023-06-04T17:05:29;7.32;;;1.90;;
13609;SDS011;6876;50.788;4.940;2023-06-04T17:08:17;3.75;;;1.95;;
13609;SDS011;6876;50.788;4.940;2023-06-04T17:11:06;3.58;;;1.98;;